Time;durP1;ratioP1;P1;durP2;ratioP2;P2;SDS_P1;SDS_P2;PMS_P1;PMS_P2;Temp;Humidity;BMP_temperature;BMP_pressure;BME280_temperature;BME280_humidity;BME280_pressure;Samples;Min_cycle;Max_cycle;Signal;HPM_P1;HPM_P2
2023/06/29 00:01:07;;;;;;;12.07;11.47;;;20.10;99.90;;;;;;4864590;29;20558;-80
2023/06/29 00:03:35;;;;;;;12.60;12.10;;;20.00;95.80;;;;;;4864986;29;21001;-81
2023/06/29 00:06:04;;;;;;;12.33;11.63;;;20.00;96.30;;;;;;4866442;29;20587;-80
2023/06/29 00:08:35;;;;;;;12.77;12.17;;;20.00;97.00;;;;;;4865445;29;20467;-81
2023/06/29 00:11:04;;;;;;;12.70;12.20;;;20.00;97.50;;;;;;4863180;29;20459;-81
2023/06/29 00:13:33;;;;;;;13.07;12.40;;;20.00;98.20;;;;;;4863580;29;20468;-79
2023/06/29 00:16:02;;;;;;;13.97;13.37;;;19.90;99.40;;;;;;4862148;29;20508;-82
2023/06/29 00:18:32;;;;;;;13.13;12.53;;;19.90;99.90;;;;;;4865418;29;20488;-80
2023/06/29 00:21:03;;;;;;;13.87;13.23;;;19.80;99.90;;;;;;4863451;29;20461;-80
2023/06/29 00:23:34;;;;;;;13.33;12.63;;;19.80;99.90;;;;;;4862335;29;20471;-78
2023/06/29 00:26:03;;;;;;;13.07;12.57;;;19.70;99.90;;;;;;4865663;29;21053;-81
2023/06/29 00:28:31;;;;;;;12.73;12.23;;;19.70;99.90;;;;;;4866072;29;20931;-81
2023/06/29 00:31:00;;;;;;;12.43;12.03;;;19.70;99.90;;;;;;4861417;29;20456;-80
2023/06/29 00:33:30;;;;;;;12.50;12.00;;;19.70;99.90;;;;;;4861191;29;20478;-79
2023/06/29 00:35:58;;;;;;;13.63;13.13;;;19.60;99.90;;;;;;4864014;29;20473;-78
2023/06/29 00:38:26;;;;;;;13.50;12.77;;;19.60;99.90;;;;;;4859792;29;21232;-78
2023/06/29 00:40:54;;;;;;;12.10;11.60;;;19.60;99.90;;;;;;4862448;29;21069;-78
2023/06/29 00:43:22;;;;;;;13.20;12.70;;;19.60;99.90;;;;;;4865377;29;20456;-78
2023/06/29 00:45:50;;;;;;;12.83;12.10;;;19.60;99.90;;;;;;4860523;29;20480;-79
2023/06/29 00:48:18;;;;;;;13.70;13.10;;;19.50;99.90;;;;;;4864631;29;20464;-79
2023/06/29 00:50:48;;;;;;;12.70;12.10;;;19.50;99.90;;;;;;4862502;29;20492;-78
2023/06/29 00:53:16;;;;;;;13.37;12.70;;;19.40;99.90;;;;;;4858411;29;20455;-83
2023/06/29 00:55:45;;;;;;;13.33;12.67;;;19.40;99.90;;;;;;4859900;29;21054;-81
2023/06/29 00:58:13;;;;;;;13.50;12.97;;;19.40;99.90;;;;;;4865128;29;20463;-82
2023/06/29 01:00:41;;;;;;;13.10;12.50;;;19.40;99.90;;;;;;4864357;29;20474;-84
2023/06/29 01:03:11;;;;;;;13.50;12.90;;;19.40;99.90;;;;;;4864672;29;20511;-83
2023/06/29 01:05:39;;;;;;;13.53;13.03;;;19.30;99.90;;;;;;4863433;29;20493;-75
2023/06/29 01:08:13;;;;;;;13.40;12.60;;;19.30;99.90;;;;;;4864489;29;21317;-81
2023/06/29 01:10:43;;;;;;;12.40;11.90;;;19.30;99.90;;;;;;4860833;29;20574;-79
2023/06/29 01:13:11;;;;;;;12.87;12.27;;;19.30;99.90;;;;;;4864948;29;20542;-80
2023/06/29 01:15:41;;;;;;;13.10;12.40;;;19.30;99.90;;;;;;4866085;29;20498;-80
2023/06/29 01:18:13;;;;;;;13.20;12.60;;;19.30;99.90;;;;;;4864093;29;20483;-78
2023/06/29 01:20:42;;;;;;;13.57;13.07;;;19.20;99.90;;;;;;4862584;29;20468;-77
2023/06/29 01:23:15;;;;;;;13.30;12.80;;;19.20;99.90;;;;;;4863992;29;20479;-81
2023/06/29 01:25:45;;;;;;;12.37;11.97;;;19.20;99.90;;;;;;4862566;29;20482;-77
2023/06/29 01:28:14;;;;;;;12.40;11.93;;;19.20;99.90;;;;;;4861988;29;20528;-78
2023/06/29 01:30:45;;;;;;;13.03;12.43;;;19.20;99.90;;;;;;4858097;29;21093;-79
2023/06/29 01:33:16;;;;;;;13.20;12.60;;;19.10;99.90;;;;;;4866334;29;20467;-76
2023/06/29 01:35:45;;;;;;;13.17;12.43;;;19.10;99.90;;;;;;4863167;29;20480;-77
2023/06/29 01:38:18;;;;;;;13.17;12.67;;;19.00;99.90;;;;;;4863993;29;20459;-79
2023/06/29 01:40:49;;;;;;;13.93;13.10;;;19.00;99.90;;;;;;4865333;29;20464;-78
2023/06/29 01:43:20;;;;;;;13.27;12.87;;;19.00;99.90;;;;;;4864307;29;20800;-81
2023/06/29 01:45:49;;;;;;;13.30;12.70;;;19.00;99.90;;;;;;4861446;29;20491;-78
2023/06/29 01:48:18;;;;;;;12.90;12.40;;;19.00;99.90;;;;;;4864360;29;20951;-78
2023/06/29 01:50:46;;;;;;;13.23;12.57;;;18.90;99.90;;;;;;4864169;29;20505;-79
2023/06/29 01:53:15;;;;;;;13.20;12.80;;;18.90;99.90;;;;;;4868080;29;20468;-82
2023/06/29 01:55:43;;;;;;;13.57;12.93;;;18.90;99.90;;;;;;4868680;29;20859;-80
2023/06/29 01:58:13;;;;;;;13.27;12.83;;;18.90;99.90;;;;;;4867935;29;20927;-79
2023/06/29 02:00:41;;;;;;;13.43;13.00;;;18.90;99.90;;;;;;4866864;29;20464;-81
2023/06/29 02:03:09;;;;;;;13.70;13.13;;;18.90;99.90;;;;;;4866085;29;20459;-79
2023/06/29 02:05:37;;;;;;;13.63;12.83;;;18.80;99.90;;;;;;4864003;29;20499;-78
2023/06/29 02:08:06;;;;;;;13.27;12.67;;;18.70;99.90;;;;;;4868292;29;20474;-81
2023/06/29 02:10:34;;;;;;;13.77;13.13;;;18.70;99.90;;;;;;4864331;29;20547;-82
2023/06/29 02:13:02;;;;;;;13.50;13.03;;;18.70;99.90;;;;;;4866893;29;20470;-82
2023/06/29 02:15:31;;;;;;;13.67;13.17;;;18.70;99.90;;;;;;4867752;29;20459;-80
2023/06/29 02:17:59;;;;;;;13.17;12.67;;;18.70;99.90;;;;;;4867896;29;20453;-79
2023/06/29 02:20:27;;;;;;;13.70;13.00;;;18.70;99.90;;;;;;4866775;29;21057;-80
2023/06/29 02:22:55;;;;;;;14.30;13.70;;;18.70;99.90;;;;;;4866128;29;20460;-79
2023/06/29 02:25:24;;;;;;;13.53;12.77;;;18.60;99.90;;;;;;4866665;29;21047;-80
2023/06/29 02:27:52;;;;;;;13.20;12.80;;;18.50;99.90;;;;;;4864599;29;20946;-82
2023/06/29 02:30:20;;;;;;;13.67;13.07;;;18.50;99.90;;;;;;4865841;29;20498;-78
2023/06/29 02:32:49;;;;;;;13.87;13.27;;;18.50;99.90;;;;;;4863876;29;20455;-80
2023/06/29 02:35:17;;;;;;;13.67;13.17;;;18.50;99.90;;;;;;4868462;29;20500;-76
2023/06/29 02:37:45;;;;;;;14.00;13.50;;;18.60;99.90;;;;;;4868939;29;20472;-80
2023/06/29 02:40:14;;;;;;;14.13;13.50;;;18.60;99.90;;;;;;4868069;29;20735;-78
2023/06/29 02:42:42;;;;;;;14.57;13.93;;;18.60;99.90;;;;;;4867341;29;20460;-81
2023/06/29 02:45:10;;;;;;;14.60;14.00;;;18.50;99.90;;;;;;4863980;29;20466;-79
2023/06/29 02:47:38;;;;;;;14.57;13.97;;;18.50;99.90;;;;;;4864858;29;20483;-78
2023/06/29 02:50:09;;;;;;;14.37;13.67;;;18.50;99.90;;;;;;4865840;29;20468;-80
2023/06/29 02:52:37;;;;;;;13.90;13.40;;;18.40;99.90;;;;;;4867471;29;20487;-80
2023/06/29 02:55:06;;;;;;;14.50;13.80;;;18.40;99.90;;;;;;4862196;29;20456;-80
2023/06/29 02:57:34;;;;;;;14.37;13.63;;;18.40;99.90;;;;;;4863059;29;20487;-79
2023/06/29 03:00:03;;;;;;;14.17;13.47;;;18.40;99.90;;;;;;4865367;29;20482;-79
2023/06/29 03:02:31;;;;;;;14.67;14.07;;;18.40;99.90;;;;;;4861951;29;20451;-81
2023/06/29 03:04:59;;;;;;;14.83;14.23;;;18.40;99.90;;;;;;4864943;29;20463;-79
2023/06/29 03:07:28;;;;;;;14.57;13.83;;;18.30;99.90;;;;;;4860118;29;20502;-78
2023/06/29 03:09:57;;;;;;;14.10;13.60;;;18.30;99.90;;;;;;4864518;29;20521;-78
2023/06/29 03:12:25;;;;;;;14.20;13.50;;;18.30;99.90;;;;;;4866234;29;20440;-78
2023/06/29 03:14:53;;;;;;;14.93;14.13;;;18.30;99.90;;;;;;4861984;29;20455;-80
2023/06/29 03:17:23;;;;;;;15.17;14.20;;;18.30;99.90;;;;;;4863298;29;20483;-76
2023/06/29 03:19:51;;;;;;;14.57;13.97;;;18.20;99.90;;;;;;4863777;29;20466;-79
2023/06/29 03:22:19;;;;;;;14.17;13.57;;;18.20;99.90;;;;;;4865318;29;20472;-83
2023/06/29 03:24:49;;;;;;;14.43;13.73;;;18.20;99.90;;;;;;4863038;29;20476;-77
2023/06/29 03:27:17;;;;;;;14.27;13.57;;;18.10;99.90;;;;;;4863988;29;20482;-78
2023/06/29 03:29:45;;;;;;;15.30;14.50;;;18.10;99.90;;;;;;4863696;29;20558;-77
2023/06/29 03:32:13;;;;;;;15.20;14.50;;;18.00;99.90;;;;;;4864123;29;21083;-80
2023/06/29 03:34:41;;;;;;;14.50;14.00;;;18.10;99.90;;;;;;4865522;29;20887;-80
2023/06/29 03:37:10;;;;;;;13.90;13.40;;;18.10;99.90;;;;;;4865387;29;20477;-78
2023/06/29 03:39:38;;;;;;;14.40;13.67;;;18.10;99.90;;;;;;4864909;29;20976;-77
2023/06/29 03:42:08;;;;;;;14.20;13.70;;;18.10;99.90;;;;;;4863299;29;20471;-78
2023/06/29 03:44:36;;;;;;;14.97;14.37;;;18.10;99.90;;;;;;4864037;29;20459;-77
2023/06/29 03:47:05;;;;;;;15.10;14.30;;;18.10;99.90;;;;;;4864686;29;20479;-79
2023/06/29 03:49:33;;;;;;;15.27;14.57;;;18.10;99.90;;;;;;4864435;29;20460;-76
2023/06/29 03:52:01;;;;;;;14.13;13.57;;;18.00;99.90;;;;;;4866819;29;20479;-78
2023/06/29 03:54:29;;;;;;;15.07;14.47;;;18.00;99.90;;;;;;4865584;29;20460;-78
2023/06/29 03:56:57;;;;;;;15.10;14.37;;;18.10;99.90;;;;;;4865211;29;20474;-80
2023/06/29 03:59:27;;;;;;;15.20;14.60;;;18.00;99.90;;;;;;4865322;29;20453;-79
2023/06/29 04:01:55;;;;;;;15.27;14.50;;;18.10;99.90;;;;;;4856140;29;20480;-80
2023/06/29 04:04:23;;;;;;;15.17;14.50;;;18.20;99.90;;;;;;4864103;29;20449;-81
2023/06/29 04:06:51;;;;;;;13.93;13.40;;;18.20;99.90;;;;;;4865987;29;20574;-80
2023/06/29 04:09:20;;;;;;;15.40;14.63;;;18.10;99.90;;;;;;4861774;29;20539;-81
2023/06/29 04:11:48;;;;;;;15.37;14.63;;;18.10;99.90;;;;;;4864619;29;20481;-79
2023/06/29 04:14:16;;;;;;;15.30;14.60;;;18.10;99.90;;;;;;4868506;29;20463;-79
2023/06/29 04:16:45;;;;;;;15.23;14.63;;;18.20;99.90;;;;;;4866064;29;20483;-79
2023/06/29 04:19:14;;;;;;;15.30;14.60;;;18.10;99.90;;;;;;4863785;29;20451;-78
2023/06/29 04:21:44;;;;;;;15.00;14.10;;;18.20;99.90;;;;;;4874794;29;21034;-78
2023/06/29 04:24:12;;;;;;;15.57;14.87;;;18.20;99.90;;;;;;4864899;29;20456;-81
2023/06/29 04:26:41;;;;;;;15.80;15.00;;;18.20;99.90;;;;;;4863114;29;20495;-80
2023/06/29 04:29:09;;;;;;;15.70;15.00;;;18.20;99.90;;;;;;4866758;29;20855;-82
2023/06/29 04:31:37;;;;;;;15.00;14.50;;;18.30;99.90;;;;;;4864804;29;20483;-80
2023/06/29 04:34:06;;;;;;;15.17;14.67;;;18.30;99.90;;;;;;4866102;29;20539;-75
2023/06/29 04:36:34;;;;;;;14.63;14.03;;;18.30;99.90;;;;;;4863307;29;20475;-77
2023/06/29 04:39:03;;;;;;;15.17;14.57;;;18.30;99.90;;;;;;4862363;29;20558;-76
2023/06/29 04:41:32;;;;;;;19.57;18.47;;;18.40;99.90;;;;;;4863638;29;20465;-74
2023/06/29 04:44:00;;;;;;;18.15;17.17;;;18.30;99.90;;;;;;4863996;29;20459;-75
2023/06/29 04:46:29;;;;;;;15.97;15.37;;;18.30;99.90;;;;;;4864858;29;20224;-78
2023/06/29 04:48:57;;;;;;;15.77;15.07;;;18.50;99.90;;;;;;4862656;29;20456;-76
2023/06/29 04:51:26;;;;;;;16.50;15.80;;;18.40;99.90;;;;;;4861310;29;20569;-77
2023/06/29 04:53:55;;;;;;;16.57;15.57;;;18.50;99.90;;;;;;4859549;29;21053;-76
2023/06/29 04:56:23;;;;;;;16.37;15.67;;;18.50;99.90;;;;;;4856100;29;20488;-76
2023/06/29 04:58:51;;;;;;;17.07;16.20;;;18.50;99.90;;;;;;4864629;29;20468;-75
2023/06/29 05:01:19;;;;;;;16.43;15.70;;;18.50;99.90;;;;;;4864733;29;20472;-82
2023/06/29 05:03:48;;;;;;;18.00;17.10;;;18.50;99.90;;;;;;4864438;29;20460;-79
2023/06/29 05:06:17;;;;;;;16.37;15.63;;;18.60;99.90;;;;;;4866070;29;20499;-80
2023/06/29 05:08:48;;;;;;;17.90;16.93;;;18.70;99.90;;;;;;4864735;29;20558;-68
2023/06/29 05:11:16;;;;;;;16.90;16.20;;;18.70;99.90;;;;;;4863016;29;21015;-79
2023/06/29 05:13:44;;;;;;;17.40;16.60;;;18.70;99.90;;;;;;4863660;29;20456;-77
2023/06/29 05:16:13;;;;;;;18.40;17.60;;;18.70;99.90;;;;;;4862782;29;20498;-77
2023/06/29 05:18:41;;;;;;;17.70;16.80;;;18.80;99.90;;;;;;4864673;29;20973;-78
2023/06/29 05:21:10;;;;;;;17.40;16.47;;;18.90;99.90;;;;;;4865335;29;21007;-80
2023/06/29 05:23:38;;;;;;;17.47;16.57;;;19.00;99.90;;;;;;4864835;29;20507;-79
2023/06/29 05:26:08;;;;;;;17.87;17.07;;;19.00;99.90;;;;;;4868434;29;20484;-77
2023/06/29 05:28:36;;;;;;;17.73;16.90;;;19.00;99.90;;;;;;4867269;29;20850;-79
2023/06/29 05:31:04;;;;;;;17.80;17.00;;;19.10;99.90;;;;;;4864673;29;20466;-77
2023/06/29 05:33:32;;;;;;;19.37;18.47;;;19.10;99.90;;;;;;4868560;29;20487;-78
2023/06/29 05:36:01;;;;;;;20.30;19.23;;;19.10;99.90;;;;;;4870128;29;20475;-76
2023/06/29 05:38:29;;;;;;;18.33;17.40;;;19.20;99.90;;;;;;4866382;29;20889;-77
2023/06/29 05:40:57;;;;;;;19.07;18.07;;;19.30;99.90;;;;;;4867500;29;20467;-78
2023/06/29 05:43:30;;;;;;;18.27;17.27;;;19.30;99.90;;;;;;4861480;29;20464;-77
2023/06/29 05:45:59;;;;;;;18.20;17.37;;;19.30;99.90;;;;;;4869423;29;20684;-79
2023/06/29 05:48:27;;;;;;;17.43;16.63;;;19.30;99.90;;;;;;4867160;29;20459;-78
2023/06/29 05:50:55;;;;;;;17.60;16.80;;;19.30;99.90;;;;;;4869278;29;20549;-79
2023/06/29 05:53:23;;;;;;;17.70;16.87;;;19.40;99.90;;;;;;4865852;29;20924;-77
2023/06/29 05:55:51;;;;;;;19.27;18.07;;;19.40;99.90;;;;;;4865592;29;20479;-77
2023/06/29 05:58:19;;;;;;;17.83;17.13;;;19.50;99.90;;;;;;4869750;29;20467;-75
2023/06/29 06:00:49;;;;;;;18.53;17.40;;;19.60;99.90;;;;;;4867282;29;20589;-78
2023/06/29 06:03:17;;;;;;;18.83;17.70;;;19.60;99.90;;;;;;4859706;29;20463;-79
2023/06/29 06:05:45;;;;;;;17.80;16.90;;;19.70;99.90;;;;;;4866291;29;20491;-78
2023/06/29 06:08:13;;;;;;;16.80;16.10;;;19.80;99.90;;;;;;4868526;29;20925;-77
2023/06/29 06:10:42;;;;;;;16.67;15.77;;;19.80;99.90;;;;;;4865983;29;20840;-77
2023/06/29 06:13:12;;;;;;;15.73;15.07;;;19.90;99.90;;;;;;4864266;29;20223;-80
2023/06/29 06:15:41;;;;;;;15.87;15.30;;;19.90;99.90;;;;;;4862303;29;21017;-77
2023/06/29 06:18:10;;;;;;;15.30;14.70;;;20.00;99.90;;;;;;4859380;29;20972;-78
2023/06/29 06:20:38;;;;;;;15.77;15.07;;;20.00;99.90;;;;;;4866062;29;20835;-80
2023/06/29 06:23:07;;;;;;;15.77;15.20;;;20.00;99.90;;;;;;4866924;29;20523;-76
2023/06/29 06:25:35;;;;;;;15.70;14.90;;;20.10;99.90;;;;;;4861784;29;20559;-77
2023/06/29 06:28:03;;;;;;;15.93;15.20;;;20.10;99.90;;;;;;4867914;29;20452;-79
2023/06/29 06:30:31;;;;;;;15.33;14.60;;;20.10;99.90;;;;;;4867698;29;20464;-76
2023/06/29 06:33:01;;;;;;;14.30;13.90;;;20.20;99.90;;;;;;4863843;29;20934;-79
2023/06/29 06:35:31;;;;;;;15.10;14.50;;;20.30;99.90;;;;;;4879549;29;20467;-79
2023/06/29 06:37:59;;;;;;;15.50;15.00;;;20.20;99.90;;;;;;4867854;29;20456;-78
2023/06/29 06:40:27;;;;;;;15.40;14.80;;;20.30;99.90;;;;;;4862079;29;20484;-80
2023/06/29 06:42:56;;;;;;;16.00;15.30;;;20.30;99.90;;;;;;4866535;29;20551;-78
2023/06/29 06:45:26;;;;;;;14.37;13.80;;;20.40;99.90;;;;;;4869057;29;20467;-80
2023/06/29 06:47:54;;;;;;;14.10;13.70;;;20.50;99.90;;;;;;4867177;29;20461;-80
2023/06/29 06:50:23;;;;;;;13.90;13.50;;;20.60;99.90;;;;;;4865967;29;20453;-78
2023/06/29 06:52:52;;;;;;;14.43;13.70;;;20.70;99.90;;;;;;4866585;29;20565;-78
2023/06/29 06:55:20;;;;;;;14.40;13.60;;;20.70;99.90;;;;;;4869544;29;20448;-80
2023/06/29 06:57:48;;;;;;;14.10;13.30;;;20.70;99.90;;;;;;4864773;29;20834;-79
2023/06/29 07:00:17;;;;;;;13.73;13.13;;;20.70;99.90;;;;;;4866386;29;20462;-80
2023/06/29 07:02:46;;;;;;;13.67;13.07;;;20.80;99.90;;;;;;4865513;29;20456;-77
2023/06/29 07:05:14;;;;;;;14.50;13.90;;;20.90;99.90;;;;;;4865188;29;20484;-79
2023/06/29 07:07:44;;;;;;;13.93;13.43;;;20.90;99.90;;;;;;4865158;29;20720;-77
2023/06/29 07:10:13;;;;;;;14.30;13.80;;;21.00;99.90;;;;;;4866915;29;20552;-79
2023/06/29 07:12:42;;;;;;;14.03;13.53;;;21.10;99.90;;;;;;4867114;29;20491;-81
2023/06/29 07:15:14;;;;;;;15.07;14.27;;;21.10;99.90;;;;;;4866938;29;20462;-79
2023/06/29 07:17:42;;;;;;;14.60;13.57;;;21.10;99.90;;;;;;4858448;29;20571;-79
2023/06/29 07:20:12;;;;;;;13.60;13.10;;;21.20;99.90;;;;;;4867873;29;20471;-77
2023/06/29 07:22:43;;;;;;;13.70;13.10;;;21.30;99.90;;;;;;4868798;29;20455;-78
2023/06/29 07:25:16;;;;;;;14.20;13.50;;;21.40;99.90;;;;;;4866755;29;20460;-78
2023/06/29 07:27:45;;;;;;;13.60;12.90;;;21.60;99.90;;;;;;4858755;29;20492;-77
2023/06/29 07:30:14;;;;;;;12.60;12.20;;;21.70;99.90;;;;;;4867017;29;20980;-77
2023/06/29 07:32:42;;;;;;;13.00;12.60;;;21.70;99.90;;;;;;4864560;29;20472;-77
2023/06/29 07:35:11;;;;;;;14.30;13.07;;;21.70;99.90;;;;;;4866763;29;20458;-77
2023/06/29 07:37:40;;;;;;;14.17;13.50;;;21.90;99.90;;;;;;4866106;29;20476;-78
2023/06/29 07:40:09;;;;;;;13.43;12.80;;;21.90;99.90;;;;;;4866777;29;20461;-78
2023/06/29 07:42:39;;;;;;;13.40;13.00;;;22.00;99.90;;;;;;4866399;29;20490;-77
2023/06/29 07:45:08;;;;;;;14.80;14.20;;;22.00;99.90;;;;;;4865488;29;20467;-77
2023/06/29 07:47:36;;;;;;;15.03;14.23;;;22.10;99.90;;;;;;4865270;29;20476;-80
2023/06/29 07:50:06;;;;;;;15.10;14.30;;;22.10;99.90;;;;;;4867571;29;20468;-78
2023/06/29 07:52:34;;;;;;;15.67;14.77;;;22.20;99.90;;;;;;4865964;29;20507;-79
2023/06/29 07:55:02;;;;;;;15.07;14.50;;;22.20;99.90;;;;;;4866980;29;20475;-78
2023/06/29 07:57:30;;;;;;;15.30;14.70;;;22.20;99.90;;;;;;4865267;29;20491;-76
2023/06/29 08:00:03;;;;;;;14.40;14.00;;;22.30;99.90;;;;;;4868102;29;20466;-77
2023/06/29 08:02:31;;;;;;;14.40;13.90;;;22.40;99.90;;;;;;4864521;29;20472;-76
2023/06/29 08:04:59;;;;;;;15.80;14.93;;;22.50;99.90;;;;;;4868612;29;20494;-78
2023/06/29 08:07:33;;;;;;;14.17;13.67;;;22.50;99.90;;;;;;4865454;29;20495;-77
2023/06/29 08:10:02;;;;;;;15.10;14.60;;;22.60;99.90;;;;;;4867654;29;20515;-77
2023/06/29 08:12:30;;;;;;;15.50;14.50;;;22.60;99.90;;;;;;4865919;29;20474;-80
2023/06/29 08:14:58;;;;;;;15.20;14.40;;;22.70;99.90;;;;;;4866835;29;20491;-77
2023/06/29 08:17:27;;;;;;;15.43;14.60;;;22.60;99.90;;;;;;4864603;29;20594;-79
2023/06/29 08:19:56;;;;;;;15.93;15.20;;;22.70;99.90;;;;;;4868861;29;20486;-80
2023/06/29 08:22:25;;;;;;;15.07;14.47;;;22.70;99.90;;;;;;4866953;29;20563;-78
2023/06/29 08:24:53;;;;;;;15.60;15.10;;;22.70;99.90;;;;;;4864337;29;20840;-77
2023/06/29 08:27:21;;;;;;;15.43;14.73;;;22.70;99.90;;;;;;4867864;29;21083;-78
2023/06/29 08:29:50;;;;;;;15.17;14.63;;;22.70;99.90;;;;;;4865424;29;20467;-79
2023/06/29 08:32:18;;;;;;;15.60;15.10;;;22.80;99.90;;;;;;4869273;29;20475;-78
2023/06/29 08:34:47;;;;;;;15.30;14.70;;;22.80;99.90;;;;;;4862954;29;20526;-77
2023/06/29 08:37:15;;;;;;;15.10;14.60;;;22.80;99.90;;;;;;4866671;29;20484;-76
2023/06/29 08:39:43;;;;;;;14.93;14.43;;;22.80;99.90;;;;;;4863275;29;20471;-77
2023/06/29 08:42:12;;;;;;;14.90;14.30;;;22.80;99.90;;;;;;4865616;29;20463;-77
2023/06/29 08:44:40;;;;;;;15.17;14.60;;;22.90;99.90;;;;;;4869393;29;20474;-79
2023/06/29 08:47:10;;;;;;;15.20;14.70;;;23.00;99.90;;;;;;4869475;29;20475;-78
2023/06/29 08:49:40;;;;;;;15.70;15.00;;;23.10;99.90;;;;;;4867793;29;20467;-81
2023/06/29 08:52:13;;;;;;;15.17;14.60;;;23.10;99.90;;;;;;4863111;29;20463;-78
2023/06/29 08:54:41;;;;;;;15.30;14.60;;;23.20;99.90;;;;;;4865125;29;20518;-79
2023/06/29 08:57:10;;;;;;;15.07;14.30;;;23.40;99.90;;;;;;4864656;29;20801;-75
2023/06/29 08:59:39;;;;;;;14.80;14.20;;;23.50;99.90;;;;;;4866572;29;20466;-81
2023/06/29 09:02:07;;;;;;;15.17;14.60;;;23.50;99.90;;;;;;4863073;29;20550;-76
2023/06/29 09:04:36;;;;;;;14.27;13.87;;;23.50;99.90;;;;;;4865922;29;20493;-79
2023/06/29 09:07:04;;;;;;;14.70;14.20;;;23.50;99.90;;;;;;4866420;29;20527;-79
2023/06/29 09:09:34;;;;;;;14.23;13.80;;;23.50;99.90;;;;;;4865429;29;20561;-76
2023/06/29 09:12:03;;;;;;;14.67;14.17;;;23.50;99.90;;;;;;4865541;29;20467;-76
2023/06/29 09:14:35;;;;;;;14.80;14.20;;;23.50;99.90;;;;;;4862690;29;20578;-83
2023/06/29 09:17:14;;;;;;;15.33;14.83;;;23.50;99.90;;;;;;4864138;29;20487;-79
2023/06/29 09:19:50;;;;;;;14.83;14.33;;;23.60;99.90;;;;;;4865748;29;20459;-80
2023/06/29 09:22:21;;;;;;;14.40;13.90;;;23.70;99.90;;;;;;4866950;29;20467;-81
2023/06/29 09:24:55;;;;;;;14.70;14.20;;;23.80;99.90;;;;;;4865108;29;20753;-79
2023/06/29 09:27:37;;;;;;;13.27;12.87;;;23.80;99.90;;;;;;4863329;29;20487;-77
2023/06/29 09:30:07;;;;;;;14.60;13.70;;;23.80;99.90;;;;;;4867198;29;21511;-79
2023/06/29 09:32:38;;;;;;;13.80;13.30;;;23.70;99.90;;;;;;4868172;29;20460;-75
2023/06/29 09:35:08;;;;;;;14.43;13.77;;;23.80;99.90;;;;;;4862793;29;20529;-77
2023/06/29 09:37:37;;;;;;;13.67;13.27;;;23.80;99.90;;;;;;4866064;29;20490;-76
2023/06/29 09:40:09;;;;;;;15.20;14.60;;;23.90;99.90;;;;;;4865991;29;20566;-78
2023/06/29 09:42:38;;;;;;;13.90;13.10;;;24.00;99.90;;;;;;4865204;29;20499;-81
2023/06/29 09:45:11;;;;;;;13.70;13.20;;;24.00;99.90;;;;;;4864033;29;20456;-80
2023/06/29 09:47:41;;;;;;;13.07;12.67;;;24.10;99.90;;;;;;4867214;29;20477;-79
2023/06/29 09:50:19;;;;;;;13.10;12.67;;;24.00;99.90;;;;;;4868501;29;20464;-78
2023/06/29 09:52:50;;;;;;;13.00;12.70;;;24.10;99.90;;;;;;4865877;29;20462;-80
2023/06/29 09:55:32;;;;;;;13.80;13.10;;;24.20;99.90;;;;;;4862369;29;20474;-79
2023/06/29 09:58:01;;;;;;;14.10;13.70;;;24.40;99.90;;;;;;4867612;29;21542;-76
2023/06/29 10:00:29;;;;;;;13.13;12.83;;;24.40;99.90;;;;;;4863921;29;20463;-76
2023/06/29 10:02:57;;;;;;;13.80;13.40;;;24.40;99.90;;;;;;4864666;29;20470;-76
2023/06/29 10:05:29;;;;;;;13.90;13.40;;;24.50;99.90;;;;;;4878610;29;20472;-80
2023/06/29 10:07:59;;;;;;;13.90;13.17;;;24.60;99.90;;;;;;4868964;29;20488;-78
2023/06/29 10:10:30;;;;;;;13.13;12.63;;;24.60;99.90;;;;;;4859571;29;20474;-79
2023/06/29 10:13:00;;;;;;;13.00;12.47;;;24.70;99.90;;;;;;4867175;29;20456;-78
2023/06/29 10:15:29;;;;;;;13.43;12.83;;;24.70;99.90;;;;;;4867891;29;20484;-79
2023/06/29 10:18:04;;;;;;;13.13;12.57;;;24.70;99.90;;;;;;4867717;29;20467;-78
2023/06/29 10:20:36;;;;;;;13.43;12.80;;;24.70;99.90;;;;;;4866503;29;20451;-80
2023/06/29 10:23:06;;;;;;;12.67;12.37;;;24.70;99.90;;;;;;4866646;29;20455;-78
2023/06/29 10:25:37;;;;;;;13.77;13.10;;;24.70;99.90;;;;;;4867681;29;20452;-78
2023/06/29 10:28:08;;;;;;;13.13;12.63;;;24.70;99.90;;;;;;4868832;29;20463;-76
2023/06/29 10:30:46;;;;;;;13.73;13.13;;;24.70;99.90;;;;;;4868186;29;20592;-78
2023/06/29 10:33:21;;;;;;;13.33;12.93;;;24.80;99.90;;;;;;4868664;29;20463;-78
2023/06/29 10:35:55;;;;;;;13.50;13.00;;;24.80;99.90;;;;;;4866978;29;20489;-78
2023/06/29 10:38:29;;;;;;;13.70;13.10;;;24.80;99.90;;;;;;4863941;29;20471;-79
2023/06/29 10:40:57;;;;;;;13.40;12.90;;;24.90;99.90;;;;;;4865005;29;20919;-75
2023/06/29 10:43:28;;;;;;;14.40;13.80;;;24.90;99.90;;;;;;4863461;29;20504;-80
2023/06/29 10:45:56;;;;;;;13.60;13.00;;;25.00;99.90;;;;;;4864000;29;20472;-79
2023/06/29 10:48:25;;;;;;;13.57;12.90;;;25.20;99.90;;;;;;4864022;29;20476;-77
2023/06/29 10:51:14;;;;;;;14.60;14.00;;;25.30;99.90;;;;;;4863462;29;20463;-78
2023/06/29 10:53:43;;;;;;;13.80;13.07;;;25.30;99.90;;;;;;4865575;29;20631;-76
2023/06/29 10:56:29;;;;;;;13.60;12.80;;;25.30;99.90;;;;;;4865376;29;20502;-76
2023/06/29 10:58:59;;;;;;;13.27;12.77;;;25.20;99.90;;;;;;4869906;29;20975;-77
2023/06/29 11:01:28;;;;;;;14.13;13.23;;;25.20;99.90;;;;;;4867397;29;20468;-78
2023/06/29 11:03:56;;;;;;;13.50;12.87;;;25.20;99.90;;;;;;4870170;29;20468;-79
2023/06/29 11:06:24;;;;;;;12.90;12.33;;;25.30;99.90;;;;;;4863747;29;20547;-80
2023/06/29 11:09:12;;;;;;;12.82;12.32;;;25.30;99.90;;;;;;4867062;29;20457;-81
2023/06/29 11:11:41;;;;;;;12.30;11.80;;;25.40;99.90;;;;;;4857745;29;20203;-80
2023/06/29 11:14:17;;;;;;;12.67;12.17;;;25.50;99.90;;;;;;4875129;29;20528;-78
2023/06/29 11:16:47;;;;;;;12.60;12.10;;;25.40;99.90;;;;;;4898806;23;20501;-78
2023/06/29 11:19:15;;;;;;;13.17;12.47;;;25.50;99.90;;;;;;4898757;29;20458;-78
2023/06/29 11:21:45;;;;;;;13.43;12.40;;;25.50;99.90;;;;;;4899870;29;20455;-78
2023/06/29 11:24:13;;;;;;;12.57;12.17;;;25.60;99.90;;;;;;4901078;29;20510;-81
2023/06/29 11:30:53;;;;;;;13.40;12.67;;;25.60;99.90;;;;;;4808661;29;21008;-81
2023/06/29 11:35:00;;;;;;;12.40;11.80;;;25.60;99.90;;;;;;4774980;29;21067;-80
2023/06/29 11:38:42;;;;;;;12.20;11.80;;;25.60;99.90;;;;;;4915701;23;20775;-80
2023/06/29 11:48:51;;;;;;;14.63;13.83;;;25.70;99.90;;;;;;4847719;29;20500;-82
2023/06/29 11:51:28;;;;;;;15.60;14.67;;;25.70;99.90;;;;;;4845127;29;20997;-78
2023/06/29 11:53:57;;;;;;;16.03;14.87;;;25.70;99.90;;;;;;4855059;29;20473;-78
2023/06/29 11:56:25;;;;;;;15.17;14.17;;;25.70;99.90;;;;;;4847593;29;20903;-79
2023/06/29 11:58:53;;;;;;;14.93;14.17;;;25.80;99.90;;;;;;4836825;29;20866;-81
2023/06/29 12:01:21;;;;;;;15.93;15.00;;;25.80;99.90;;;;;;4828554;29;20466;-82
2023/06/29 12:03:51;;;;;;;15.97;15.03;;;25.90;99.90;;;;;;4836511;29;20469;-79
2023/06/29 12:06:20;;;;;;;15.53;14.63;;;25.90;99.90;;;;;;4864796;23;20498;-81
2023/06/29 12:08:53;;;;;;;15.53;14.60;;;25.90;99.90;;;;;;4871057;29;20509;-81
2023/06/29 12:11:25;;;;;;;15.53;14.63;;;25.80;99.90;;;;;;4878984;29;21125;-82
2023/06/29 12:13:55;;;;;;;15.33;14.43;;;25.80;99.90;;;;;;4869890;29;20452;-78
2023/06/29 12:19:19;;;;;;;15.20;14.20;;;25.60;99.90;;;;;;4865864;29;20518;-80
2023/06/29 12:21:53;;;;;;;15.00;14.20;;;25.60;99.90;;;;;;4879601;29;20471;-79
2023/06/29 12:24:28;;;;;;;14.47;13.67;;;25.50;99.90;;;;;;4883473;29;20455;-79
2023/06/29 12:27:40;;;;;;;14.53;13.63;;;25.60;99.90;;;;;;4900252;23;20550;-82
2023/06/29 12:35:21;;;;;;;14.10;13.30;;;25.70;99.90;;;;;;4814960;29;20466;-78
2023/06/29 12:37:53;;;;;;;14.50;13.70;;;25.80;99.90;;;;;;4815701;29;20514;-79
2023/06/29 12:49:40;;;;;;;13.33;12.57;;;25.90;99.90;;;;;;4862906;29;20436;-79
2023/06/29 13:00:21;;;;;;;12.50;11.90;;;26.00;99.90;;;;;;4866090;29;20491;-79
2023/06/29 13:02:53;;;;;;;12.93;12.47;;;25.90;99.90;;;;;;4864321;29;20495;-81
2023/06/29 13:05:31;;;;;;;13.40;12.90;;;25.80;99.90;;;;;;4864103;29;20500;-82
2023/06/29 13:07:59;;;;;;;14.50;13.90;;;25.90;99.90;;;;;;4862966;29;20501;-77
2023/06/29 13:10:27;;;;;;;13.80;13.10;;;25.80;99.90;;;;;;4862249;29;20459;-79
2023/06/29 13:12:55;;;;;;;14.20;13.50;;;25.90;99.90;;;;;;4865261;29;20472;-81
2023/06/29 13:15:25;;;;;;;13.40;12.80;;;25.80;99.90;;;;;;4863663;29;20559;-80
2023/06/29 13:17:53;;;;;;;13.50;13.00;;;25.80;99.90;;;;;;4864282;29;20873;-80
2023/06/29 13:20:22;;;;;;;13.10;12.60;;;25.80;99.90;;;;;;4858605;29;20813;-81